createdAt,value
2018-04-02T00:02:19.310Z,70.61
2018-04-02T00:04:44.980Z,70.51
2018-04-02T00:07:10.649Z,70.34
2018-04-02T00:09:36.356Z,70.15
2018-04-02T00:12:02.036Z,69.99
2018-04-02T00:14:27.730Z,69.98
2018-04-02T00:16:53.421Z,69.79
2018-04-02T00:19:19.092Z,70.03
2018-04-02T00:21:44.749Z,69.96
2018-04-02T00:24:10.451Z,69.84
2018-04-02T00:26:36.579Z,69.67
2018-04-02T00:29:02.236Z,69.43
2018-04-02T00:31:27.916Z,69.30
2018-04-02T00:33:53.579Z,69.19
2018-04-02T00:36:19.249Z,69.21
2018-04-02T00:38:44.928Z,68.99
2018-04-02T00:41:10.616Z,69.04
2018-04-02T00:43:36.349Z,68.90
2018-04-02T00:46:01.981Z,68.81
2018-04-02T00:48:27.644Z,68.67
2018-04-02T00:50:53.756Z,68.52
2018-04-02T00:53:19.437Z,68.47
2018-04-02T00:55:45.100Z,68.38
2018-04-02T00:58:10.789Z,68.39
2018-04-02T01:00:36.456Z,68.46
2018-04-02T01:03:02.124Z,68.41
2018-04-02T01:05:27.800Z,68.37
2018-04-02T01:07:53.455Z,68.30
2018-04-02T01:10:19.115Z,68.28
2018-04-02T01:12:44.793Z,68.18
2018-04-02T01:15:10.457Z,68.14
2018-04-02T01:17:36.114Z,68.27
2018-04-02T01:20:01.796Z,68.30
2018-04-02T01:22:27.820Z,68.21
2018-04-02T01:24:53.489Z,68.26
2018-04-02T01:27:19.192Z,68.38
2018-04-02T01:29:44.853Z,68.51
2018-04-02T01:32:10.518Z,68.45
2018-04-02T01:34:36.218Z,68.41
2018-04-02T01:37:01.876Z,68.34
2018-04-02T01:39:27.546Z,68.37
2018-04-02T01:41:53.205Z,68.36
2018-04-02T01:44:18.881Z,68.46
2018-04-02T01:46:44.557Z,68.49
2018-04-02T01:49:14.181Z,68.50
2018-04-02T01:59:56.600Z,68.38
2018-04-02T02:02:22.309Z,68.50
2018-04-02T02:04:47.960Z,68.55
2018-04-02T02:07:13.620Z,68.66
2018-04-02T02:09:39.274Z,68.71
2018-04-02T02:12:04.962Z,68.80
2018-04-02T02:14:30.626Z,68.93
2018-04-02T02:16:56.285Z,68.93
2018-04-02T02:19:21.954Z,69.11
2018-04-02T02:21:48.000Z,69.19
2018-04-02T02:24:13.669Z,69.36
2018-04-02T02:26:39.553Z,69.55
2018-04-02T02:29:05.221Z,69.78
2018-04-02T02:31:30.876Z,69.79
2018-04-02T02:33:56.544Z,69.97
2018-04-02T02:36:22.213Z,70.07
2018-04-02T02:38:48.237Z,69.97
2018-04-02T02:41:13.925Z,70.29
2018-04-02T02:43:39.597Z,70.24
2018-04-02T02:46:05.253Z,70.36
2018-04-02T02:48:30.932Z,70.44
2018-04-02T02:50:56.580Z,70.44
2018-04-02T02:53:22.251Z,70.46
2018-04-02T02:55:47.939Z,70.48
2018-04-02T02:58:13.616Z,70.44
2018-04-02T03:00:39.403Z,70.37
2018-04-02T03:03:05.101Z,70.36
2018-04-02T03:05:30.780Z,70.39
2018-04-02T03:07:56.456Z,70.44
2018-04-02T03:10:22.147Z,70.49
2018-04-02T03:12:47.816Z,70.60
2018-04-02T03:15:13.476Z,70.66
2018-04-02T03:17:39.143Z,70.79
2018-04-02T03:20:05.117Z,70.86
2018-04-02T03:22:30.778Z,70.87
2018-04-02T03:24:56.472Z,70.91
2018-04-02T03:27:22.148Z,71.10
2018-04-02T03:29:47.837Z,71.08
2018-04-02T03:32:13.518Z,71.17
2018-04-02T03:34:39.196Z,71.20
2018-04-02T03:37:05.337Z,71.26
2018-04-02T03:39:31.004Z,71.24
2018-04-02T03:41:56.660Z,71.27
2018-04-02T03:44:22.353Z,71.27
2018-04-02T03:46:48.001Z,71.31
2018-04-02T03:49:13.657Z,71.25
2018-04-02T03:51:39.328Z,71.15
2018-04-02T03:54:05.332Z,71.05
2018-04-02T03:56:30.987Z,71.21
2018-04-02T03:58:56.668Z,71.26
2018-04-02T04:01:22.336Z,71.20
2018-04-02T04:03:47.987Z,71.13
2018-04-02T04:06:13.655Z,71.16
2018-04-02T04:08:39.329Z,71.02
2018-04-02T04:11:05.239Z,71.16
2018-04-02T04:13:30.916Z,71.22
2018-04-02T04:15:56.569Z,71.06
2018-04-02T04:18:22.248Z,71.00
2018-04-02T04:20:47.920Z,71.06
2018-04-02T04:23:13.585Z,70.90
2018-04-02T04:25:39.266Z,70.79
2018-04-02T04:28:05.276Z,70.79
2018-04-02T04:30:30.944Z,70.80
2018-04-02T04:32:56.624Z,70.80
2018-04-02T04:35:22.320Z,70.75
2018-04-02T04:37:48.021Z,70.69
2018-04-02T04:40:13.699Z,70.52
2018-04-02T04:42:39.365Z,70.36
2018-04-02T04:45:05.028Z,70.32
2018-04-02T04:47:30.696Z,70.33
2018-04-02T04:49:56.364Z,70.32
2018-04-02T04:52:22.069Z,70.40
2018-04-02T04:54:47.752Z,70.43
2018-04-02T04:57:13.878Z,70.45
2018-04-02T04:59:39.532Z,70.45
2018-04-02T05:02:05.196Z,70.50
2018-04-02T05:04:30.906Z,70.52
2018-04-02T05:06:56.571Z,70.50
2018-04-02T05:09:22.241Z,70.39
2018-04-02T05:11:47.937Z,70.29
2018-04-02T05:14:13.588Z,70.21
2018-04-02T05:16:39.248Z,70.10
2018-04-02T05:19:04.949Z,70.13
2018-04-02T05:21:30.629Z,70.00
2018-04-02T05:23:56.844Z,69.96
2018-04-02T05:26:22.524Z,69.95
2018-04-02T05:28:48.190Z,69.99
2018-04-02T05:31:14.453Z,70.15
2018-04-02T05:33:39.541Z,70.16
2018-04-02T05:36:05.241Z,70.18
2018-04-02T05:38:30.910Z,70.14
2018-04-02T05:40:56.588Z,70.17
2018-04-02T05:43:22.252Z,70.19
2018-04-02T05:45:47.908Z,70.21
2018-04-02T05:48:13.574Z,70.15
2018-04-02T05:50:39.924Z,70.19
2018-04-02T05:53:05.585Z,70.15
2018-04-02T05:55:31.262Z,70.25
2018-04-02T05:57:56.941Z,70.41
2018-04-02T06:00:22.601Z,70.43
2018-04-02T06:02:48.286Z,70.38
2018-04-02T06:05:14.073Z,70.49
2018-04-02T06:07:39.860Z,70.37
2018-04-02T06:10:05.534Z,70.28
2018-04-02T06:12:31.200Z,70.03
2018-04-02T06:14:56.868Z,69.57
2018-04-02T06:17:22.551Z,69.12
2018-04-02T06:19:48.207Z,68.50
2018-04-02T06:22:13.877Z,67.76
2018-04-02T06:24:39.866Z,67.41
2018-04-02T06:27:05.533Z,67.23
2018-04-02T06:29:31.200Z,67.09
2018-04-02T06:31:56.877Z,67.21
2018-04-02T06:34:22.550Z,67.16
2018-04-02T06:36:48.208Z,67.18
2018-04-02T06:39:13.880Z,67.10
2018-04-02T06:41:39.544Z,67.15
2018-04-02T06:44:05.225Z,67.08
2018-04-02T06:46:30.895Z,67.34
2018-04-02T06:48:56.546Z,67.41
2018-04-02T06:51:22.201Z,67.52
2018-04-02T06:53:48.355Z,67.35
2018-04-02T06:56:14.017Z,67.33
2018-04-02T06:58:39.674Z,67.08
2018-04-02T07:01:05.384Z,66.87
2018-04-02T07:03:31.060Z,66.64
2018-04-02T07:05:56.725Z,66.54
2018-04-02T07:08:22.445Z,66.44
2018-04-02T07:10:48.095Z,66.13
2018-04-02T07:13:13.761Z,66.09
2018-04-02T07:15:39.444Z,65.88
2018-04-02T07:18:05.109Z,65.34
2018-04-02T07:20:30.777Z,64.75
2018-04-02T07:22:56.472Z,64.75
2018-04-02T07:25:22.465Z,64.55
2018-04-02T07:27:48.131Z,64.17
2018-04-02T07:30:13.804Z,64.16
2018-04-02T07:32:39.462Z,63.95
2018-04-02T07:35:05.126Z,64.51
2018-04-02T07:37:30.816Z,64.32
2018-04-02T07:39:56.508Z,64.49
2018-04-02T07:42:22.175Z,64.27
2018-04-02T07:44:47.856Z,64.15
2018-04-02T07:47:13.532Z,64.15
2018-04-02T07:49:39.233Z,64.33
2018-04-02T07:52:04.914Z,64.68
2018-04-02T07:54:30.587Z,64.73
2018-04-02T07:56:56.268Z,64.66
2018-04-02T07:59:22.424Z,63.92
2018-04-02T08:01:48.093Z,64.07
2018-04-02T08:04:13.806Z,63.62
2018-04-02T08:06:39.431Z,62.77
2018-04-02T08:09:05.109Z,62.46
2018-04-02T08:11:30.819Z,62.28
2018-04-02T08:13:56.477Z,62.09
2018-04-02T08:16:22.132Z,61.68
2018-04-02T08:18:48.360Z,60.88
2018-04-02T08:21:14.023Z,60.01
2018-04-02T08:23:39.701Z,58.32
2018-04-02T08:26:05.381Z,57.42
2018-04-02T08:28:31.052Z,57.19
2018-04-02T08:30:56.756Z,56.74
2018-04-02T08:33:22.412Z,56.49
2018-04-02T08:35:48.337Z,56.61
2018-04-02T08:38:13.992Z,55.53
2018-04-02T08:40:39.673Z,55.10
2018-04-02T08:43:05.352Z,54.77
2018-04-02T08:45:31.025Z,54.35
2018-04-02T08:47:56.681Z,52.89
2018-04-02T08:50:22.388Z,53.43
2018-04-02T08:52:48.056Z,53.37
2018-04-02T08:55:13.729Z,53.17
2018-04-02T08:57:39.894Z,53.75
2018-04-02T09:00:05.599Z,52.37
2018-04-02T09:02:31.255Z,51.87
2018-04-02T09:04:56.926Z,50.65
2018-04-02T09:07:22.603Z,51.79
2018-04-02T09:09:48.279Z,52.77
2018-04-02T09:12:13.977Z,52.95
2018-04-02T09:14:39.656Z,52.36
2018-04-02T09:17:05.316Z,51.50
2018-04-02T09:19:30.987Z,50.95
2018-04-02T09:21:56.683Z,52.04
2018-04-02T09:24:22.761Z,53.04
2018-04-02T09:26:48.448Z,51.91
2018-04-02T09:29:14.160Z,51.86
2018-04-02T09:31:39.840Z,51.01
2018-04-02T09:34:05.516Z,50.70
2018-04-02T09:36:31.206Z,50.97
2018-04-02T09:38:56.894Z,51.05
2018-04-02T09:41:22.566Z,50.60
2018-04-02T09:43:48.239Z,49.46
2018-04-02T09:46:13.908Z,50.11
2018-04-02T09:48:39.640Z,48.82
2018-04-02T09:51:05.300Z,48.76
2018-04-02T09:53:30.972Z,48.38
2018-04-02T09:55:57.203Z,47.15
2018-04-02T09:58:22.861Z,46.17
2018-04-02T10:00:48.823Z,45.59
2018-04-02T10:03:14.508Z,45.90
2018-04-02T10:05:40.156Z,47.08
2018-04-02T10:08:05.829Z,46.50
2018-04-02T10:10:31.533Z,45.08
2018-04-02T10:12:57.183Z,44.45
2018-04-02T10:15:22.994Z,44.95
2018-04-02T10:17:48.652Z,42.35
2018-04-02T10:20:14.340Z,43.39
2018-04-02T10:22:40.038Z,43.80
2018-04-02T10:25:05.719Z,44.55
2018-04-02T10:27:31.798Z,44.28
2018-04-02T10:29:57.545Z,43.08
2018-04-02T10:32:23.173Z,43.72
2018-04-02T10:34:48.839Z,45.19
2018-04-02T10:37:14.527Z,45.76
2018-04-02T10:39:40.204Z,46.86
2018-04-02T10:42:05.885Z,47.05
2018-04-02T10:44:31.582Z,46.51
2018-04-02T10:46:57.356Z,45.97
2018-04-02T10:49:23.037Z,44.45
2018-04-02T10:51:49.293Z,44.63
2018-04-02T10:54:14.949Z,45.64
2018-04-02T10:56:40.638Z,45.42
2018-04-02T10:59:06.315Z,45.55
2018-04-02T11:01:31.985Z,45.85
2018-04-02T11:03:57.633Z,45.30
2018-04-02T11:06:23.323Z,45.59
2018-04-02T11:08:49.317Z,45.63
2018-04-02T11:11:15.025Z,45.29
2018-04-02T11:13:40.716Z,45.08
2018-04-02T11:16:06.389Z,44.09
2018-04-02T11:18:32.039Z,43.69
2018-04-02T11:20:57.734Z,43.83
2018-04-02T11:23:23.412Z,43.87
2018-04-02T11:25:49.708Z,43.93
2018-04-02T11:28:15.380Z,43.75
2018-04-02T11:30:41.040Z,43.06
2018-04-02T11:33:06.691Z,43.11
2018-04-02T11:35:32.373Z,42.81
2018-04-02T11:37:58.053Z,42.28
2018-04-02T11:40:23.734Z,42.55
2018-04-02T11:42:49.472Z,42.15
2018-04-02T11:45:15.089Z,42.67
2018-04-02T11:47:40.770Z,42.74
2018-04-02T11:50:06.799Z,42.95
2018-04-02T11:52:32.457Z,43.07
2018-04-02T11:54:58.130Z,43.01
2018-04-02T11:57:23.808Z,42.44
2018-04-02T11:59:49.463Z,42.13
2018-04-02T12:02:15.136Z,41.86
2018-04-02T12:04:40.817Z,41.64
2018-04-02T12:07:06.509Z,41.24
2018-04-02T12:09:32.168Z,40.97
2018-04-02T12:11:57.884Z,41.09
2018-04-02T12:19:54.517Z,40.09
2018-04-02T12:22:20.177Z,39.86
2018-04-02T12:24:45.834Z,39.75
2018-04-02T12:27:11.504Z,39.31
2018-04-02T12:29:37.178Z,39.53
2018-04-02T12:32:02.843Z,39.99
2018-04-02T12:34:28.514Z,39.49
2018-04-02T12:36:54.205Z,39.35
2018-04-02T12:39:19.858Z,39.40
2018-04-02T12:41:45.559Z,39.54
2018-04-02T12:44:11.276Z,39.64
2018-04-02T12:46:36.933Z,39.83
2018-04-02T12:49:03.019Z,40.36
2018-04-02T12:51:28.712Z,40.47
2018-04-02T12:53:54.380Z,40.55
2018-04-02T12:56:20.068Z,40.23
2018-04-02T12:58:45.746Z,40.28
2018-04-02T13:01:11.409Z,39.09
2018-04-02T13:03:37.102Z,39.42
2018-04-02T13:06:03.220Z,39.78
2018-04-02T13:08:28.885Z,39.60
2018-04-02T13:10:54.560Z,39.03
2018-04-02T13:13:20.225Z,39.49
2018-04-02T13:15:45.889Z,39.59
2018-04-02T13:18:11.583Z,39.59
2018-04-02T13:20:37.277Z,39.17
2018-04-02T13:23:02.933Z,39.10
2018-04-02T13:25:29.080Z,39.19
2018-04-02T13:27:54.757Z,39.25
2018-04-02T13:30:20.424Z,38.59
2018-04-02T13:32:46.122Z,38.40
2018-04-02T13:35:11.832Z,38.46
2018-04-02T13:37:37.484Z,37.60
2018-04-02T13:40:03.182Z,38.03
2018-04-02T13:42:28.866Z,37.91
2018-04-02T13:44:54.527Z,38.01
2018-04-02T13:47:20.224Z,38.00
2018-04-02T13:49:45.896Z,38.11
2018-04-02T13:52:11.947Z,37.92
2018-04-02T13:54:37.630Z,37.97
2018-04-02T13:57:03.299Z,38.38
2018-04-02T13:59:28.999Z,38.27
2018-04-02T14:01:54.675Z,38.67
2018-04-02T14:04:20.353Z,38.56
2018-04-02T14:06:46.013Z,38.21
2018-04-02T14:09:11.698Z,38.45
2018-04-02T14:11:37.364Z,37.72
2018-04-02T14:14:03.066Z,37.95
2018-04-02T14:16:28.728Z,38.57
2018-04-02T14:18:54.385Z,38.47
2018-04-02T14:21:20.152Z,38.86
2018-04-02T14:23:46.694Z,39.11
2018-04-02T14:26:12.358Z,39.07
2018-04-02T14:28:38.040Z,39.10
2018-04-02T14:31:03.707Z,39.25
2018-04-02T14:33:29.370Z,39.44
2018-04-02T14:35:55.073Z,39.40
2018-04-02T14:38:20.784Z,39.28
2018-04-02T14:40:46.451Z,39.39
2018-04-02T14:43:12.146Z,39.25
2018-04-02T14:45:37.820Z,38.97
2018-04-02T14:48:03.480Z,38.63
2018-04-02T14:50:29.229Z,38.89
2018-04-02T14:52:54.891Z,39.08
2018-04-02T14:55:20.546Z,39.26
2018-04-02T14:57:46.220Z,39.04
2018-04-02T15:00:11.872Z,38.96
2018-04-02T15:02:37.545Z,38.92
2018-04-02T15:05:03.243Z,39.06
2018-04-02T15:07:28.896Z,39.18
2018-04-02T15:09:54.564Z,39.37
2018-04-02T15:13:33.029Z,40.09
2018-04-02T15:15:58.685Z,40.18
2018-04-02T15:18:24.344Z,40.56
2018-04-02T15:20:50.028Z,40.63
2018-04-02T15:23:16.143Z,40.88
2018-04-02T15:25:41.872Z,40.80
2018-04-02T15:28:07.576Z,40.96
2018-04-02T15:30:33.252Z,40.75
2018-04-02T15:32:58.897Z,40.71
2018-04-02T15:35:24.585Z,40.68
2018-04-02T15:37:50.268Z,41.16
2018-04-02T15:40:15.915Z,41.53
2018-04-02T15:42:41.596Z,41.58
2018-04-02T15:45:07.246Z,41.27
2018-04-02T15:47:32.927Z,41.20
2018-04-02T15:49:58.593Z,41.12
2018-04-02T15:52:24.622Z,41.14
2018-04-02T15:54:50.312Z,41.69
2018-04-02T15:57:16.000Z,41.99
2018-04-02T15:59:41.664Z,41.76
2018-04-02T16:02:07.328Z,42.02
2018-04-02T16:04:32.997Z,41.85
2018-04-02T16:06:58.651Z,42.17
2018-04-02T16:09:24.641Z,42.46
2018-04-02T16:11:50.344Z,42.23
2018-04-02T16:14:16.018Z,42.04
2018-04-02T16:16:41.684Z,42.46
2018-04-02T16:19:07.372Z,42.73
2018-04-02T16:21:33.028Z,42.76
2018-04-02T16:23:58.703Z,42.80
2018-04-02T16:26:24.876Z,42.94
2018-04-02T16:28:50.549Z,42.88
2018-04-02T16:31:16.280Z,42.94
2018-04-02T16:33:42.606Z,43.13
2018-04-02T16:36:08.358Z,43.12
2018-04-02T16:38:34.029Z,43.40
2018-04-02T16:40:59.711Z,43.30
2018-04-02T16:43:25.386Z,43.56
2018-04-02T16:45:51.906Z,43.77
2018-04-02T16:48:18.189Z,43.99
2018-04-02T16:50:43.896Z,44.08
2018-04-02T16:53:09.578Z,44.39
2018-04-02T16:55:35.281Z,44.61
2018-04-02T16:58:00.940Z,44.96
2018-04-02T17:00:26.620Z,45.12
2018-04-02T17:02:52.333Z,45.46
2018-04-02T17:05:18.388Z,46.20
2018-04-02T17:07:44.048Z,46.95
2018-04-02T17:10:09.732Z,47.56
2018-04-02T17:12:35.390Z,47.82
2018-04-02T17:15:01.053Z,48.09
2018-04-02T17:17:26.740Z,47.85
2018-04-02T17:19:52.393Z,48.07
2018-04-02T17:22:18.061Z,48.29
2018-04-02T17:24:43.781Z,48.45
2018-04-02T17:27:09.537Z,48.57
2018-04-02T17:29:35.203Z,48.69
2018-04-02T17:32:00.878Z,49.07
2018-04-02T17:34:26.524Z,49.38
2018-04-02T17:36:52.181Z,50.11
2018-04-02T17:39:17.872Z,50.57
2018-04-02T17:41:43.556Z,50.94
2018-04-02T17:44:09.217Z,50.85
2018-04-02T17:46:34.916Z,51.08
2018-04-02T17:49:00.577Z,50.47
2018-04-02T17:51:26.246Z,51.00
2018-04-02T17:53:52.320Z,51.23
2018-04-02T17:56:17.975Z,51.78
2018-04-02T17:58:43.677Z,52.40
2018-04-02T18:01:09.352Z,52.82
2018-04-02T18:03:35.016Z,53.16
2018-04-02T18:06:00.682Z,53.73
2018-04-02T18:08:26.366Z,54.30
2018-04-02T18:10:52.404Z,54.03
2018-04-02T18:13:18.092Z,54.84
2018-04-02T18:15:43.886Z,54.31
2018-04-02T18:18:09.575Z,54.68
2018-04-02T18:20:35.903Z,55.16
2018-04-02T18:23:01.568Z,54.93
2018-04-02T18:25:27.258Z,55.27
2018-04-02T18:27:52.907Z,55.83
2018-04-02T18:30:18.880Z,55.86
2018-04-02T18:32:44.570Z,55.93
2018-04-02T18:35:10.325Z,56.23
2018-04-02T18:37:35.984Z,56.29
2018-04-02T18:40:01.653Z,56.22
2018-04-02T18:42:27.341Z,56.23
2018-04-02T18:44:53.026Z,56.17
2018-04-02T18:47:18.701Z,56.36
2018-04-02T18:49:44.430Z,56.65
2018-04-02T18:52:10.095Z,56.72
2018-04-02T18:54:36.039Z,57.11
2018-04-02T18:57:01.735Z,57.41
2018-04-02T18:59:27.424Z,57.75
2018-04-02T19:01:53.090Z,57.97
2018-04-02T19:04:18.802Z,58.05
2018-04-02T19:06:44.586Z,58.62
2018-04-02T19:09:10.339Z,58.58
2018-04-02T19:11:36.032Z,58.90
2018-04-02T19:14:01.707Z,59.09
2018-04-02T19:16:27.372Z,59.06
2018-04-02T19:18:53.755Z,59.21
2018-04-02T19:21:19.431Z,59.29
2018-04-02T19:23:45.240Z,59.23
2018-04-02T19:26:10.929Z,59.42
2018-04-02T19:28:36.608Z,59.71
2018-04-02T19:31:02.264Z,60.09
2018-04-02T19:33:27.933Z,60.08
2018-04-02T19:35:53.636Z,60.08
2018-04-02T19:38:19.308Z,60.22
2018-04-02T19:40:44.965Z,60.33
2018-04-02T19:43:10.632Z,60.21
2018-04-02T19:45:36.301Z,60.12
2018-04-02T19:48:01.976Z,60.35
2018-04-02T19:50:27.660Z,60.54
2018-04-02T19:52:53.330Z,60.57
2018-04-02T19:55:19.012Z,60.71
2018-04-02T19:57:44.966Z,60.83
2018-04-02T20:00:10.709Z,60.85
2018-04-02T20:02:36.369Z,60.89
2018-04-02T20:05:02.032Z,61.00
2018-04-02T20:07:27.712Z,61.01
2018-04-02T20:09:53.361Z,60.83
2018-04-02T20:12:19.040Z,60.78
2018-04-02T20:14:44.741Z,60.63
2018-04-02T20:17:10.411Z,60.55
2018-04-02T20:19:36.068Z,60.46
2018-04-02T20:22:01.782Z,60.73
2018-04-02T20:24:27.752Z,60.77
2018-04-02T20:26:53.464Z,60.71
2018-04-02T20:29:19.160Z,60.82
2018-04-02T20:31:44.834Z,60.79
2018-04-02T20:34:10.507Z,60.66
2018-04-02T20:36:36.191Z,60.57
2018-04-02T20:39:01.852Z,60.55
2018-04-02T20:41:27.780Z,60.42
2018-04-02T20:43:53.452Z,60.58
2018-04-02T20:46:19.103Z,60.63
2018-04-02T20:48:44.795Z,60.87
2018-04-02T20:51:10.531Z,60.82
2018-04-02T20:53:36.190Z,60.91
2018-04-02T20:56:01.859Z,60.99
2018-04-02T20:58:27.786Z,61.12
2018-04-02T21:00:53.432Z,61.20
2018-04-02T21:03:19.111Z,61.41
2018-04-02T21:05:44.768Z,61.47
2018-04-02T21:08:10.437Z,61.70
2018-04-02T21:10:36.161Z,61.60
2018-04-02T21:13:01.840Z,61.53
2018-04-02T21:15:27.501Z,61.76
2018-04-02T21:17:53.262Z,62.33
2018-04-02T21:20:19.231Z,62.81
2018-04-02T21:22:44.902Z,63.19
2018-04-02T21:25:10.569Z,63.38
2018-04-02T21:27:36.273Z,63.71
2018-04-02T21:30:01.958Z,64.03
2018-04-02T21:32:27.637Z,64.08
2018-04-02T21:34:53.310Z,64.45
2018-04-02T21:37:18.971Z,64.50
2018-04-02T21:39:44.658Z,64.58
2018-04-02T21:42:10.333Z,64.70
2018-04-02T21:44:36.004Z,64.78
2018-04-02T21:47:01.692Z,65.13
2018-04-02T21:49:27.344Z,64.91
2018-04-02T21:51:53.549Z,64.97
2018-04-02T21:54:19.262Z,65.04
2018-04-02T21:56:44.979Z,65.25
2018-04-02T21:59:10.798Z,65.06
2018-04-02T22:01:36.499Z,65.11
2018-04-02T22:04:02.252Z,64.92
2018-04-02T22:06:34.206Z,65.00
2018-04-02T22:09:00.388Z,64.89
2018-04-02T22:11:26.011Z,64.59
2018-04-02T22:13:51.700Z,64.52
2018-04-02T22:16:17.348Z,64.23
2018-04-02T22:18:42.997Z,64.01
2018-04-02T22:21:08.676Z,64.22
2018-04-02T22:23:34.334Z,64.34
2018-04-02T22:26:00.013Z,64.27
2018-04-02T22:28:25.955Z,64.14
2018-04-02T22:30:51.632Z,64.12
2018-04-02T22:33:17.288Z,63.95
2018-04-02T22:35:42.964Z,63.90
2018-04-02T22:40:34.232Z,64.07
2018-04-02T22:42:59.909Z,63.94
2018-04-02T22:45:25.587Z,64.00
2018-04-02T22:47:51.340Z,63.87
2018-04-02T22:50:17.004Z,63.85
2018-04-02T22:52:42.926Z,63.79
2018-04-02T22:55:08.605Z,63.98
2018-04-02T22:57:34.277Z,64.22
2018-04-02T22:59:59.924Z,64.37
2018-04-02T23:02:25.588Z,64.45
2018-04-02T23:04:51.237Z,64.69
2018-04-02T23:07:16.908Z,65.00
2018-04-02T23:09:42.732Z,65.29
2018-04-02T23:12:08.396Z,65.47
2018-04-02T23:14:34.063Z,66.04
2018-04-02T23:16:59.762Z,66.35
2018-04-02T23:19:25.439Z,66.59
2018-04-02T23:21:51.106Z,66.91
2018-04-02T23:24:16.797Z,66.83
2018-04-02T23:26:42.520Z,67.23
2018-04-02T23:29:08.181Z,67.06
2018-04-02T23:31:33.872Z,67.45
2018-04-02T23:33:59.532Z,67.66
2018-04-02T23:36:25.184Z,68.03
2018-04-02T23:38:50.853Z,68.25
2018-04-02T23:41:16.513Z,68.35
2018-04-02T23:43:42.172Z,68.59
2018-04-02T23:46:07.860Z,69.01
2018-04-02T23:48:33.533Z,69.04
2018-04-02T23:50:59.207Z,69.42
2018-04-02T23:53:24.956Z,69.48
2018-04-02T23:55:50.612Z,69.79
2018-04-02T23:58:16.292Z,69.97
